sensor_id;sensor_type;location;lat;lon;timestamp;P1;durP1;ratioP1;P2;durP2;ratioP2
16159;SDS011;8185;57.818;15.224;2023-08-12T00:00:34;1.80;;;1.27;;
16159;SDS011;8185;57.818;15.224;2023-08-12T00:03:01;2.43;;;1.20;;
16159;SDS011;8185;57.818;15.224;2023-08-12T00:05:29;3.10;;;1.13;;
16159;SDS011;8185;57.818;15.224;2023-08-12T00:07:56;3.90;;;1.53;;
16159;SDS011;8185;57.818;15.224;2023-08-12T00:10:23;3.07;;;1.33;;
16159;SDS011;8185;57.818;15.224;2023-08-12T00:12:50;1.17;;;1.00;;
16159;SDS011;8185;57.818;15.224;2023-08-12T00:15:17;4.37;;;1.50;;
16159;SDS011;8185;57.818;15.224;2023-08-12T00:17:46;4.20;;;1.40;;
16159;SDS011;8185;57.818;15.224;2023-08-12T00:20:13;3.60;;;1.33;;
16159;SDS011;8185;57.818;15.224;2023-08-12T00:22:41;1.43;;;1.30;;
16159;SDS011;8185;57.818;15.224;2023-08-12T00:25:08;1.77;;;1.17;;
16159;SDS011;8185;57.818;15.224;2023-08-12T00:27:35;1.67;;;1.00;;
16159;SDS011;8185;57.818;15.224;2023-08-12T00:30:03;2.47;;;1.13;;
16159;SDS011;8185;57.818;15.224;2023-08-12T00:32:31;2.40;;;1.47;;
16159;SDS011;8185;57.818;15.224;2023-08-12T00:35:00;4.33;;;1.50;;
16159;SDS011;8185;57.818;15.224;2023-08-12T00:37:28;2.50;;;1.20;;
16159;SDS011;8185;57.818;15.224;2023-08-12T00:39:55;2.30;;;1.73;;
16159;SDS011;8185;57.818;15.224;2023-08-12T00:42:22;2.07;;;1.40;;
16159;SDS011;8185;57.818;15.224;2023-08-12T00:44:49;1.67;;;1.07;;
16159;SDS011;8185;57.818;15.224;2023-08-12T00:47:16;4.07;;;1.70;;
16159;SDS011;8185;57.818;15.224;2023-08-12T00:49:44;2.17;;;1.40;;
16159;SDS011;8185;57.818;15.224;2023-08-12T00:52:12;1.80;;;1.10;;
16159;SDS011;8185;57.818;15.224;2023-08-12T00:54:40;4.83;;;1.40;;
16159;SDS011;8185;57.818;15.224;2023-08-12T00:57:08;4.67;;;1.33;;
16159;SDS011;8185;57.818;15.224;2023-08-12T00:59:35;1.43;;;1.30;;
16159;SDS011;8185;57.818;15.224;2023-08-12T01:02:03;2.30;;;1.47;;
16159;SDS011;8185;57.818;15.224;2023-08-12T01:04:31;1.57;;;1.23;;
16159;SDS011;8185;57.818;15.224;2023-08-12T01:06:58;2.37;;;1.23;;
16159;SDS011;8185;57.818;15.224;2023-08-12T01:09:27;1.87;;;1.20;;
16159;SDS011;8185;57.818;15.224;2023-08-12T01:11:55;2.13;;;1.20;;
16159;SDS011;8185;57.818;15.224;2023-08-12T01:14:34;2.37;;;1.27;;
16159;SDS011;8185;57.818;15.224;2023-08-12T01:17:09;5.60;;;1.30;;
16159;SDS011;8185;57.818;15.224;2023-08-12T01:19:40;2.67;;;1.40;;
16159;SDS011;8185;57.818;15.224;2023-08-12T01:22:10;1.27;;;1.00;;
16159;SDS011;8185;57.818;15.224;2023-08-12T01:24:40;2.27;;;1.10;;
16159;SDS011;8185;57.818;15.224;2023-08-12T01:27:08;1.93;;;0.97;;
16159;SDS011;8185;57.818;15.224;2023-08-12T01:29:38;1.00;;;0.90;;
16159;SDS011;8185;57.818;15.224;2023-08-12T01:32:09;2.77;;;1.17;;
16159;SDS011;8185;57.818;15.224;2023-08-12T01:34:47;2.93;;;1.40;;
16159;SDS011;8185;57.818;15.224;2023-08-12T01:37:23;3.33;;;1.27;;
16159;SDS011;8185;57.818;15.224;2023-08-12T01:39:54;1.20;;;1.10;;
16159;SDS011;8185;57.818;15.224;2023-08-12T01:42:25;3.10;;;1.10;;
16159;SDS011;8185;57.818;15.224;2023-08-12T01:44:54;3.80;;;1.20;;
16159;SDS011;8185;57.818;15.224;2023-08-12T01:47:22;3.33;;;1.20;;
16159;SDS011;8185;57.818;15.224;2023-08-12T01:49:49;2.03;;;1.53;;
16159;SDS011;8185;57.818;15.224;2023-08-12T01:52:16;2.10;;;1.10;;
16159;SDS011;8185;57.818;15.224;2023-08-12T01:54:43;3.50;;;1.40;;
16159;SDS011;8185;57.818;15.224;2023-08-12T01:57:12;1.83;;;1.33;;
16159;SDS011;8185;57.818;15.224;2023-08-12T01:59:39;1.67;;;1.30;;
16159;SDS011;8185;57.818;15.224;2023-08-12T02:02:08;2.57;;;1.50;;
16159;SDS011;8185;57.818;15.224;2023-08-12T02:04:36;8.53;;;1.47;;
16159;SDS011;8185;57.818;15.224;2023-08-12T02:07:04;1.97;;;1.30;;
16159;SDS011;8185;57.818;15.224;2023-08-12T02:09:31;2.47;;;1.40;;
16159;SDS011;8185;57.818;15.224;2023-08-12T02:11:58;3.17;;;1.57;;
16159;SDS011;8185;57.818;15.224;2023-08-12T02:14:27;5.33;;;1.60;;
16159;SDS011;8185;57.818;15.224;2023-08-12T02:16:54;3.03;;;1.53;;
16159;SDS011;8185;57.818;15.224;2023-08-12T02:19:21;3.47;;;2.13;;
16159;SDS011;8185;57.818;15.224;2023-08-12T02:21:48;3.53;;;1.70;;
16159;SDS011;8185;57.818;15.224;2023-08-12T02:24:15;2.10;;;1.40;;
16159;SDS011;8185;57.818;15.224;2023-08-12T02:26:43;3.97;;;1.50;;
16159;SDS011;8185;57.818;15.224;2023-08-12T02:29:10;4.33;;;1.63;;
16159;SDS011;8185;57.818;15.224;2023-08-12T02:31:38;3.03;;;2.03;;
16159;SDS011;8185;57.818;15.224;2023-08-12T02:34:05;2.80;;;1.90;;
16159;SDS011;8185;57.818;15.224;2023-08-12T02:36:33;2.57;;;1.83;;
16159;SDS011;8185;57.818;15.224;2023-08-12T02:39:00;2.57;;;1.97;;
16159;SDS011;8185;57.818;15.224;2023-08-12T02:41:27;2.47;;;1.87;;
16159;SDS011;8185;57.818;15.224;2023-08-12T02:43:55;3.10;;;1.90;;
16159;SDS011;8185;57.818;15.224;2023-08-12T02:46:22;2.70;;;2.00;;
16159;SDS011;8185;57.818;15.224;2023-08-12T02:48:52;2.67;;;2.20;;
16159;SDS011;8185;57.818;15.224;2023-08-12T02:51:19;5.20;;;2.10;;
16159;SDS011;8185;57.818;15.224;2023-08-12T02:53:46;2.77;;;2.13;;
16159;SDS011;8185;57.818;15.224;2023-08-12T02:56:13;1.93;;;1.80;;
16159;SDS011;8185;57.818;15.224;2023-08-12T02:58:40;3.67;;;2.33;;
16159;SDS011;8185;57.818;15.224;2023-08-12T03:01:08;2.70;;;2.23;;
16159;SDS011;8185;57.818;15.224;2023-08-12T03:03:35;3.43;;;2.20;;
16159;SDS011;8185;57.818;15.224;2023-08-12T03:06:03;3.00;;;2.50;;
16159;SDS011;8185;57.818;15.224;2023-08-12T03:08:31;2.50;;;2.30;;
16159;SDS011;8185;57.818;15.224;2023-08-12T03:10:59;4.83;;;2.77;;
16159;SDS011;8185;57.818;15.224;2023-08-12T03:13:26;5.53;;;2.60;;
16159;SDS011;8185;57.818;15.224;2023-08-12T03:15:53;4.00;;;2.50;;
16159;SDS011;8185;57.818;15.224;2023-08-12T03:18:21;3.70;;;2.07;;
16159;SDS011;8185;57.818;15.224;2023-08-12T03:20:48;3.00;;;2.60;;
16159;SDS011;8185;57.818;15.224;2023-08-12T03:23:17;4.90;;;2.43;;
16159;SDS011;8185;57.818;15.224;2023-08-12T03:25:46;3.20;;;2.90;;
16159;SDS011;8185;57.818;15.224;2023-08-12T03:28:13;4.30;;;2.53;;
16159;SDS011;8185;57.818;15.224;2023-08-12T03:30:40;4.43;;;3.03;;
16159;SDS011;8185;57.818;15.224;2023-08-12T03:33:07;4.13;;;2.80;;
16159;SDS011;8185;57.818;15.224;2023-08-12T03:35:35;3.27;;;2.80;;
16159;SDS011;8185;57.818;15.224;2023-08-12T03:38:02;5.53;;;2.80;;
16159;SDS011;8185;57.818;15.224;2023-08-12T03:40:30;4.63;;;2.40;;
16159;SDS011;8185;57.818;15.224;2023-08-12T03:42:57;3.57;;;2.80;;
16159;SDS011;8185;57.818;15.224;2023-08-12T03:45:25;5.70;;;3.07;;
16159;SDS011;8185;57.818;15.224;2023-08-12T03:47:52;9.63;;;2.53;;
16159;SDS011;8185;57.818;15.224;2023-08-12T03:50:19;3.57;;;2.47;;
16159;SDS011;8185;57.818;15.224;2023-08-12T03:52:47;5.47;;;2.90;;
16159;SDS011;8185;57.818;15.224;2023-08-12T03:55:14;4.23;;;2.47;;
16159;SDS011;8185;57.818;15.224;2023-08-12T03:57:43;3.83;;;2.30;;
16159;SDS011;8185;57.818;15.224;2023-08-12T04:00:10;5.00;;;2.70;;
16159;SDS011;8185;57.818;15.224;2023-08-12T04:02:38;7.33;;;2.40;;
16159;SDS011;8185;57.818;15.224;2023-08-12T04:05:05;4.17;;;3.13;;
16159;SDS011;8185;57.818;15.224;2023-08-12T04:07:33;3.53;;;2.87;;
16159;SDS011;8185;57.818;15.224;2023-08-12T04:10:00;5.13;;;3.17;;
16159;SDS011;8185;57.818;15.224;2023-08-12T04:12:27;3.83;;;2.63;;
16159;SDS011;8185;57.818;15.224;2023-08-12T04:14:56;6.53;;;2.90;;
16159;SDS011;8185;57.818;15.224;2023-08-12T04:17:23;3.90;;;2.67;;
16159;SDS011;8185;57.818;15.224;2023-08-12T04:19:50;4.20;;;2.90;;
16159;SDS011;8185;57.818;15.224;2023-08-12T04:22:17;6.93;;;2.83;;
16159;SDS011;8185;57.818;15.224;2023-08-12T04:24:44;5.20;;;3.17;;
16159;SDS011;8185;57.818;15.224;2023-08-12T04:27:12;5.77;;;3.47;;
16159;SDS011;8185;57.818;15.224;2023-08-12T04:29:39;5.00;;;2.73;;
16159;SDS011;8185;57.818;15.224;2023-08-12T04:32:07;3.83;;;2.67;;
16159;SDS011;8185;57.818;15.224;2023-08-12T04:34:34;7.17;;;2.77;;
16159;SDS011;8185;57.818;15.224;2023-08-12T04:37:02;4.97;;;2.60;;
16159;SDS011;8185;57.818;15.224;2023-08-12T04:39:29;4.60;;;2.90;;
16159;SDS011;8185;57.818;15.224;2023-08-12T04:41:57;4.60;;;3.23;;
16159;SDS011;8185;57.818;15.224;2023-08-12T04:44:24;6.87;;;2.70;;
16159;SDS011;8185;57.818;15.224;2023-08-12T04:46:51;3.40;;;2.50;;
16159;SDS011;8185;57.818;15.224;2023-08-12T04:49:20;2.90;;;2.47;;
16159;SDS011;8185;57.818;15.224;2023-08-12T04:51:51;5.50;;;2.50;;
16159;SDS011;8185;57.818;15.224;2023-08-12T04:54:18;5.33;;;2.43;;
16159;SDS011;8185;57.818;15.224;2023-08-12T04:56:45;2.63;;;2.17;;
16159;SDS011;8185;57.818;15.224;2023-08-12T04:59:13;3.90;;;2.60;;
16159;SDS011;8185;57.818;15.224;2023-08-12T05:01:40;4.27;;;2.30;;
16159;SDS011;8185;57.818;15.224;2023-08-12T05:04:08;3.90;;;2.40;;
16159;SDS011;8185;57.818;15.224;2023-08-12T05:06:37;3.73;;;2.10;;
16159;SDS011;8185;57.818;15.224;2023-08-12T05:09:04;3.90;;;2.17;;
16159;SDS011;8185;57.818;15.224;2023-08-12T05:11:31;4.10;;;1.97;;
16159;SDS011;8185;57.818;15.224;2023-08-12T05:13:58;2.83;;;1.90;;
16159;SDS011;8185;57.818;15.224;2023-08-12T05:16:26;4.40;;;2.00;;
16159;SDS011;8185;57.818;15.224;2023-08-12T05:18:54;4.03;;;2.10;;
16159;SDS011;8185;57.818;15.224;2023-08-12T05:21:21;3.00;;;1.70;;
16159;SDS011;8185;57.818;15.224;2023-08-12T05:23:50;2.20;;;2.00;;
16159;SDS011;8185;57.818;15.224;2023-08-12T05:26:17;2.20;;;1.90;;
16159;SDS011;8185;57.818;15.224;2023-08-12T05:28:45;2.23;;;1.80;;
16159;SDS011;8185;57.818;15.224;2023-08-12T05:31:12;4.90;;;1.83;;
16159;SDS011;8185;57.818;15.224;2023-08-12T05:33:40;3.97;;;2.10;;
16159;SDS011;8185;57.818;15.224;2023-08-12T05:36:08;2.53;;;1.77;;
16159;SDS011;8185;57.818;15.224;2023-08-12T05:38:35;2.87;;;1.90;;
16159;SDS011;8185;57.818;15.224;2023-08-12T05:41:05;2.87;;;1.97;;
16159;SDS011;8185;57.818;15.224;2023-08-12T05:43:33;1.90;;;1.70;;
16159;SDS011;8185;57.818;15.224;2023-08-12T05:46:00;4.33;;;1.80;;
16159;SDS011;8185;57.818;15.224;2023-08-12T05:48:29;5.07;;;2.00;;
16159;SDS011;8185;57.818;15.224;2023-08-12T05:50:56;4.57;;;2.03;;
16159;SDS011;8185;57.818;15.224;2023-08-12T05:53:23;2.00;;;1.70;;
16159;SDS011;8185;57.818;15.224;2023-08-12T05:55:50;6.00;;;1.73;;
16159;SDS011;8185;57.818;15.224;2023-08-12T05:58:19;4.73;;;1.50;;
16159;SDS011;8185;57.818;15.224;2023-08-12T06:00:46;4.57;;;1.63;;
16159;SDS011;8185;57.818;15.224;2023-08-12T06:03:13;2.83;;;2.00;;
16159;SDS011;8185;57.818;15.224;2023-08-12T06:05:41;3.33;;;2.03;;
16159;SDS011;8185;57.818;15.224;2023-08-12T06:08:09;2.67;;;1.70;;
16159;SDS011;8185;57.818;15.224;2023-08-12T06:10:36;2.50;;;1.90;;
16159;SDS011;8185;57.818;15.224;2023-08-12T06:13:04;3.23;;;1.80;;
16159;SDS011;8185;57.818;15.224;2023-08-12T06:15:32;1.73;;;1.53;;
16159;SDS011;8185;57.818;15.224;2023-08-12T06:18:01;6.50;;;1.80;;
16159;SDS011;8185;57.818;15.224;2023-08-12T06:20:28;2.07;;;1.50;;
16159;SDS011;8185;57.818;15.224;2023-08-12T06:22:55;3.20;;;1.50;;
16159;SDS011;8185;57.818;15.224;2023-08-12T06:25:23;1.90;;;1.50;;
16159;SDS011;8185;57.818;15.224;2023-08-12T06:27:50;1.30;;;1.20;;
16159;SDS011;8185;57.818;15.224;2023-08-12T06:30:17;3.30;;;1.57;;
16159;SDS011;8185;57.818;15.224;2023-08-12T06:32:46;2.20;;;1.60;;
16159;SDS011;8185;57.818;15.224;2023-08-12T06:35:13;4.97;;;4.43;;
16159;SDS011;8185;57.818;15.224;2023-08-12T06:37:40;2.13;;;1.60;;
16159;SDS011;8185;57.818;15.224;2023-08-12T06:40:08;1.87;;;1.40;;
16159;SDS011;8185;57.818;15.224;2023-08-12T06:42:35;4.33;;;1.80;;
16159;SDS011;8185;57.818;15.224;2023-08-12T06:45:03;2.63;;;1.70;;
16159;SDS011;8185;57.818;15.224;2023-08-12T06:47:30;2.53;;;1.67;;
16159;SDS011;8185;57.818;15.224;2023-08-12T06:49:59;3.07;;;1.50;;
16159;SDS011;8185;57.818;15.224;2023-08-12T06:52:27;4.43;;;1.50;;
16159;SDS011;8185;57.818;15.224;2023-08-12T06:54:54;7.07;;;2.97;;
16159;SDS011;8185;57.818;15.224;2023-08-12T06:57:21;2.47;;;1.60;;
16159;SDS011;8185;57.818;15.224;2023-08-12T06:59:48;2.37;;;1.70;;
16159;SDS011;8185;57.818;15.224;2023-08-12T07:02:15;2.03;;;1.60;;
16159;SDS011;8185;57.818;15.224;2023-08-12T07:04:43;2.27;;;1.67;;
16159;SDS011;8185;57.818;15.224;2023-08-12T07:07:11;2.80;;;1.80;;
16159;SDS011;8185;57.818;15.224;2023-08-12T07:09:38;2.33;;;1.40;;
16159;SDS011;8185;57.818;15.224;2023-08-12T07:12:06;1.70;;;1.20;;
16159;SDS011;8185;57.818;15.224;2023-08-12T07:14:33;1.83;;;1.73;;
16159;SDS011;8185;57.818;15.224;2023-08-12T07:17:00;1.80;;;1.40;;
16159;SDS011;8185;57.818;15.224;2023-08-12T07:19:28;2.30;;;1.77;;
16159;SDS011;8185;57.818;15.224;2023-08-12T07:21:55;2.47;;;1.70;;
16159;SDS011;8185;57.818;15.224;2023-08-12T07:24:23;2.90;;;1.57;;
16159;SDS011;8185;57.818;15.224;2023-08-12T07:26:50;3.13;;;1.83;;
16159;SDS011;8185;57.818;15.224;2023-08-12T07:29:18;3.50;;;1.40;;
16159;SDS011;8185;57.818;15.224;2023-08-12T07:31:45;2.00;;;1.20;;
16159;SDS011;8185;57.818;15.224;2023-08-12T07:34:12;1.73;;;1.50;;
16159;SDS011;8185;57.818;15.224;2023-08-12T07:36:39;1.53;;;1.27;;
16159;SDS011;8185;57.818;15.224;2023-08-12T07:39:06;1.77;;;1.23;;
16159;SDS011;8185;57.818;15.224;2023-08-12T07:41:35;1.63;;;1.40;;
16159;SDS011;8185;57.818;15.224;2023-08-12T07:44:03;2.47;;;1.60;;
16159;SDS011;8185;57.818;15.224;2023-08-12T07:46:30;2.27;;;1.43;;
16159;SDS011;8185;57.818;15.224;2023-08-12T07:48:57;1.37;;;1.27;;
16159;SDS011;8185;57.818;15.224;2023-08-12T07:51:25;1.63;;;1.30;;
16159;SDS011;8185;57.818;15.224;2023-08-12T07:53:52;1.53;;;1.43;;
16159;SDS011;8185;57.818;15.224;2023-08-12T07:56:19;1.70;;;1.10;;
16159;SDS011;8185;57.818;15.224;2023-08-12T07:58:47;1.70;;;1.13;;
16159;SDS011;8185;57.818;15.224;2023-08-12T08:01:15;1.90;;;1.30;;
16159;SDS011;8185;57.818;15.224;2023-08-12T08:03:42;4.50;;;1.47;;
16159;SDS011;8185;57.818;15.224;2023-08-12T08:06:09;3.33;;;1.30;;
16159;SDS011;8185;57.818;15.224;2023-08-12T08:08:36;1.83;;;1.47;;
16159;SDS011;8185;57.818;15.224;2023-08-12T08:11:03;2.33;;;1.33;;
16159;SDS011;8185;57.818;15.224;2023-08-12T08:13:31;2.40;;;1.00;;
16159;SDS011;8185;57.818;15.224;2023-08-12T08:16:00;4.03;;;1.70;;
16159;SDS011;8185;57.818;15.224;2023-08-12T08:18:27;4.23;;;1.73;;
16159;SDS011;8185;57.818;15.224;2023-08-12T08:20:54;3.90;;;1.63;;
16159;SDS011;8185;57.818;15.224;2023-08-12T08:23:21;1.73;;;0.97;;
16159;SDS011;8185;57.818;15.224;2023-08-12T08:25:48;2.17;;;1.80;;
16159;SDS011;8185;57.818;15.224;2023-08-12T08:28:16;1.73;;;1.13;;
16159;SDS011;8185;57.818;15.224;2023-08-12T08:30:43;3.80;;;1.20;;
16159;SDS011;8185;57.818;15.224;2023-08-12T08:33:12;2.07;;;1.10;;
16159;SDS011;8185;57.818;15.224;2023-08-12T08:35:39;3.87;;;1.20;;
16159;SDS011;8185;57.818;15.224;2023-08-12T08:38:07;1.88;;;1.17;;
16159;SDS011;8185;57.818;15.224;2023-08-12T08:40:34;1.40;;;1.10;;
16159;SDS011;8185;57.818;15.224;2023-08-12T08:43:02;1.55;;;1.23;;
16159;SDS011;8185;57.818;15.224;2023-08-12T08:45:33;1.52;;;1.20;;
16159;SDS011;8185;57.818;15.224;2023-08-12T08:48:02;5.32;;;1.95;;
16159;SDS011;8185;57.818;15.224;2023-08-12T08:50:34;2.17;;;1.48;;
16159;SDS011;8185;57.818;15.224;2023-08-12T08:53:03;3.90;;;1.15;;
16159;SDS011;8185;57.818;15.224;2023-08-12T08:55:32;2.78;;;1.20;;
16159;SDS011;8185;57.818;15.224;2023-08-12T08:57:59;1.00;;;0.90;;
16159;SDS011;8185;57.818;15.224;2023-08-12T09:00:27;2.55;;;1.10;;
16159;SDS011;8185;57.818;15.224;2023-08-12T09:02:55;3.67;;;1.10;;
16159;SDS011;8185;57.818;15.224;2023-08-12T09:05:25;2.33;;;1.20;;
16159;SDS011;8185;57.818;15.224;2023-08-12T09:07:54;3.08;;;0.90;;
16159;SDS011;8185;57.818;15.224;2023-08-12T09:10:21;2.63;;;1.35;;
16159;SDS011;8185;57.818;15.224;2023-08-12T09:12:53;3.05;;;1.25;;
16159;SDS011;8185;57.818;15.224;2023-08-12T09:15:21;2.10;;;1.30;;
16159;SDS011;8185;57.818;15.224;2023-08-12T09:17:49;2.35;;;1.17;;
16159;SDS011;8185;57.818;15.224;2023-08-12T09:20:16;1.10;;;0.90;;
16159;SDS011;8185;57.818;15.224;2023-08-12T09:22:43;3.38;;;1.35;;
16159;SDS011;8185;57.818;15.224;2023-08-12T09:25:12;3.13;;;1.42;;
16159;SDS011;8185;57.818;15.224;2023-08-12T09:27:39;1.83;;;1.20;;
16159;SDS011;8185;57.818;15.224;2023-08-12T09:30:07;2.35;;;1.00;;
16159;SDS011;8185;57.818;15.224;2023-08-12T09:32:34;1.17;;;1.08;;
16159;SDS011;8185;57.818;15.224;2023-08-12T09:35:03;2.88;;;1.33;;
16159;SDS011;8185;57.818;15.224;2023-08-12T09:37:32;2.08;;;1.20;;
16159;SDS011;8185;57.818;15.224;2023-08-12T09:39:59;3.83;;;1.30;;
16159;SDS011;8185;57.818;15.224;2023-08-12T09:42:32;1.83;;;1.17;;
16159;SDS011;8185;57.818;15.224;2023-08-12T09:44:59;2.38;;;1.30;;
16159;SDS011;8185;57.818;15.224;2023-08-12T09:47:28;1.95;;;1.10;;
16159;SDS011;8185;57.818;15.224;2023-08-12T09:49:55;2.30;;;1.25;;
16159;SDS011;8185;57.818;15.224;2023-08-12T09:52:23;1.35;;;1.00;;
16159;SDS011;8185;57.818;15.224;2023-08-12T09:54:51;1.40;;;1.00;;
16159;SDS011;8185;57.818;15.224;2023-08-12T09:57:21;3.17;;;1.17;;
16159;SDS011;8185;57.818;15.224;2023-08-12T09:59:53;1.55;;;0.90;;
16159;SDS011;8185;57.818;15.224;2023-08-12T10:02:22;2.25;;;1.30;;
16159;SDS011;8185;57.818;15.224;2023-08-12T10:04:50;2.40;;;1.33;;
16159;SDS011;8185;57.818;15.224;2023-08-12T10:07:22;1.70;;;1.20;;
16159;SDS011;8185;57.818;15.224;2023-08-12T10:09:50;2.23;;;1.40;;
16159;SDS011;8185;57.818;15.224;2023-08-12T10:12:17;2.40;;;1.15;;
16159;SDS011;8185;57.818;15.224;2023-08-12T10:14:45;3.80;;;1.70;;
16159;SDS011;8185;57.818;15.224;2023-08-12T10:17:15;2.33;;;1.20;;
16159;SDS011;8185;57.818;15.224;2023-08-12T10:19:43;3.50;;;1.38;;
16159;SDS011;8185;57.818;15.224;2023-08-12T10:22:11;3.43;;;1.30;;
16159;SDS011;8185;57.818;15.224;2023-08-12T10:24:39;2.07;;;1.70;;
16159;SDS011;8185;57.818;15.224;2023-08-12T10:27:09;2.20;;;1.10;;
16159;SDS011;8185;57.818;15.224;2023-08-12T10:29:38;2.67;;;1.30;;
16159;SDS011;8185;57.818;15.224;2023-08-12T10:32:08;1.85;;;1.05;;
16159;SDS011;8185;57.818;15.224;2023-08-12T10:34:37;1.85;;;1.20;;
16159;SDS011;8185;57.818;15.224;2023-08-12T10:37:04;2.40;;;1.30;;
16159;SDS011;8185;57.818;15.224;2023-08-12T10:39:32;2.75;;;1.17;;
16159;SDS011;8185;57.818;15.224;2023-08-12T10:42:00;4.85;;;1.30;;
16159;SDS011;8185;57.818;15.224;2023-08-12T10:44:38;1.52;;;1.15;;
16159;SDS011;8185;57.818;15.224;2023-08-12T10:47:07;3.80;;;1.30;;
16159;SDS011;8185;57.818;15.224;2023-08-12T10:49:39;1.75;;;1.20;;
16159;SDS011;8185;57.818;15.224;2023-08-12T10:52:19;1.67;;;1.10;;
16159;SDS011;8185;57.818;15.224;2023-08-12T10:54:54;3.53;;;1.10;;
16159;SDS011;8185;57.818;15.224;2023-08-12T10:57:34;1.60;;;1.10;;
16159;SDS011;8185;57.818;15.224;2023-08-12T11:00:04;1.52;;;1.35;;
16159;SDS011;8185;57.818;15.224;2023-08-12T11:02:33;2.75;;;1.00;;
16159;SDS011;8185;57.818;15.224;2023-08-12T11:05:03;2.90;;;1.40;;
16159;SDS011;8185;57.818;15.224;2023-08-12T11:07:37;1.85;;;1.70;;
16159;SDS011;8185;57.818;15.224;2023-08-12T11:10:05;2.97;;;1.20;;
16159;SDS011;8185;57.818;15.224;2023-08-12T11:12:38;1.95;;;1.10;;
16159;SDS011;8185;57.818;15.224;2023-08-12T11:15:06;1.65;;;1.15;;
16159;SDS011;8185;57.818;15.224;2023-08-12T11:17:35;3.88;;;1.20;;
16159;SDS011;8185;57.818;15.224;2023-08-12T11:20:05;1.67;;;1.13;;
16159;SDS011;8185;57.818;15.224;2023-08-12T11:22:36;4.50;;;1.40;;
16159;SDS011;8185;57.818;15.224;2023-08-12T11:25:06;2.75;;;1.05;;
16159;SDS011;8185;57.818;15.224;2023-08-12T11:27:38;2.03;;;1.42;;
16159;SDS011;8185;57.818;15.224;2023-08-12T11:30:07;3.83;;;1.50;;
16159;SDS011;8185;57.818;15.224;2023-08-12T11:32:35;3.90;;;1.33;;
16159;SDS011;8185;57.818;15.224;2023-08-12T11:35:06;3.40;;;1.20;;
16159;SDS011;8185;57.818;15.224;2023-08-12T11:37:35;2.35;;;1.30;;
16159;SDS011;8185;57.818;15.224;2023-08-12T11:40:03;1.48;;;1.00;;
16159;SDS011;8185;57.818;15.224;2023-08-12T11:42:34;3.17;;;1.50;;
16159;SDS011;8185;57.818;15.224;2023-08-12T11:45:01;1.30;;;1.20;;
16159;SDS011;8185;57.818;15.224;2023-08-12T11:47:28;1.92;;;1.25;;
16159;SDS011;8185;57.818;15.224;2023-08-12T11:49:56;3.28;;;1.30;;
16159;SDS011;8185;57.818;15.224;2023-08-12T11:52:24;1.88;;;1.30;;
16159;SDS011;8185;57.818;15.224;2023-08-12T11:54:52;1.83;;;1.35;;
16159;SDS011;8185;57.818;15.224;2023-08-12T11:57:21;1.42;;;1.30;;
16159;SDS011;8185;57.818;15.224;2023-08-12T11:59:49;2.17;;;1.35;;
16159;SDS011;8185;57.818;15.224;2023-08-12T12:02:16;1.48;;;1.10;;
16159;SDS011;8185;57.818;15.224;2023-08-12T12:04:43;4.05;;;1.60;;
16159;SDS011;8185;57.818;15.224;2023-08-12T12:07:17;1.08;;;1.00;;
16159;SDS011;8185;57.818;15.224;2023-08-12T12:09:47;1.20;;;1.00;;
16159;SDS011;8185;57.818;15.224;2023-08-12T12:12:17;1.40;;;1.10;;
16159;SDS011;8185;57.818;15.224;2023-08-12T12:14:46;1.65;;;1.33;;
16159;SDS011;8185;57.818;15.224;2023-08-12T12:17:14;2.72;;;1.45;;
16159;SDS011;8185;57.818;15.224;2023-08-12T12:19:42;3.10;;;1.30;;
16159;SDS011;8185;57.818;15.224;2023-08-12T12:22:10;1.75;;;1.10;;
16159;SDS011;8185;57.818;15.224;2023-08-12T12:24:43;1.95;;;1.40;;
16159;SDS011;8185;57.818;15.224;2023-08-12T12:27:13;3.75;;;1.60;;
16159;SDS011;8185;57.818;15.224;2023-08-12T12:29:41;2.92;;;1.45;;
16159;SDS011;8185;57.818;15.224;2023-08-12T12:32:08;2.80;;;1.20;;
16159;SDS011;8185;57.818;15.224;2023-08-12T12:34:36;3.55;;;1.50;;
16159;SDS011;8185;57.818;15.224;2023-08-12T12:37:03;1.30;;;1.20;;
16159;SDS011;8185;57.818;15.224;2023-08-12T12:39:31;3.47;;;1.38;;
16159;SDS011;8185;57.818;15.224;2023-08-12T12:41:58;1.75;;;1.65;;
16159;SDS011;8185;57.818;15.224;2023-08-12T12:44:27;3.10;;;1.23;;
16159;SDS011;8185;57.818;15.224;2023-08-12T12:46:55;1.52;;;1.17;;
16159;SDS011;8185;57.818;15.224;2023-08-12T12:49:22;1.70;;;1.20;;
16159;SDS011;8185;57.818;15.224;2023-08-12T12:51:49;1.83;;;1.40;;
16159;SDS011;8185;57.818;15.224;2023-08-12T12:54:17;3.97;;;1.65;;
16159;SDS011;8185;57.818;15.224;2023-08-12T12:56:44;2.47;;;1.27;;
16159;SDS011;8185;57.818;15.224;2023-08-12T12:59:11;1.85;;;1.33;;
16159;SDS011;8185;57.818;15.224;2023-08-12T13:01:41;2.10;;;1.40;;
16159;SDS011;8185;57.818;15.224;2023-08-12T13:04:08;1.40;;;1.20;;
16159;SDS011;8185;57.818;15.224;2023-08-12T13:06:35;2.22;;;1.20;;
16159;SDS011;8185;57.818;15.224;2023-08-12T13:09:03;1.40;;;1.30;;
16159;SDS011;8185;57.818;15.224;2023-08-12T13:11:31;1.60;;;1.50;;
16159;SDS011;8185;57.818;15.224;2023-08-12T13:14:00;2.05;;;1.25;;
16159;SDS011;8185;57.818;15.224;2023-08-12T13:16:27;1.65;;;1.10;;
16159;SDS011;8185;57.818;15.224;2023-08-12T13:18:56;2.83;;;1.33;;
16159;SDS011;8185;57.818;15.224;2023-08-12T13:21:24;1.30;;;1.20;;
16159;SDS011;8185;57.818;15.224;2023-08-12T13:23:52;2.03;;;1.42;;
16159;SDS011;8185;57.818;15.224;2023-08-12T13:26:20;2.47;;;1.27;;
16159;SDS011;8185;57.818;15.224;2023-08-12T13:28:48;1.77;;;1.50;;
16159;SDS011;8185;57.818;15.224;2023-08-12T13:31:15;2.17;;;1.35;;
16159;SDS011;8185;57.818;15.224;2023-08-12T13:33:42;1.60;;;1.50;;
16159;SDS011;8185;57.818;15.224;2023-08-12T13:36:11;1.65;;;1.55;;
16159;SDS011;8185;57.818;15.224;2023-08-12T13:38:38;1.60;;;1.42;;
16159;SDS011;8185;57.818;15.224;2023-08-12T13:41:05;1.65;;;1.40;;
16159;SDS011;8185;57.818;15.224;2023-08-12T13:43:33;1.50;;;1.40;;
16159;SDS011;8185;57.818;15.224;2023-08-12T13:46:00;3.05;;;1.30;;
16159;SDS011;8185;57.818;15.224;2023-08-12T13:48:27;2.67;;;1.60;;
16159;SDS011;8185;57.818;15.224;2023-08-12T13:50:54;2.00;;;1.30;;
16159;SDS011;8185;57.818;15.224;2023-08-12T13:53:23;2.15;;;1.25;;
16159;SDS011;8185;57.818;15.224;2023-08-12T13:55:50;3.53;;;1.42;;
16159;SDS011;8185;57.818;15.224;2023-08-12T13:58:17;1.73;;;1.33;;
16159;SDS011;8185;57.818;15.224;2023-08-12T14:00:45;1.60;;;1.30;;
16159;SDS011;8185;57.818;15.224;2023-08-12T14:03:12;3.58;;;1.30;;
16159;SDS011;8185;57.818;15.224;2023-08-12T14:05:39;2.53;;;1.40;;
16159;SDS011;8185;57.818;15.224;2023-08-12T14:08:08;3.70;;;1.40;;
16159;SDS011;8185;57.818;15.224;2023-08-12T14:10:37;2.20;;;1.40;;
16159;SDS011;8185;57.818;15.224;2023-08-12T14:13:04;1.90;;;1.30;;
16159;SDS011;8185;57.818;15.224;2023-08-12T14:15:32;1.40;;;1.27;;
16159;SDS011;8185;57.818;15.224;2023-08-12T14:18:00;1.80;;;1.20;;
16159;SDS011;8185;57.818;15.224;2023-08-12T14:20:27;2.50;;;1.60;;
16159;SDS011;8185;57.818;15.224;2023-08-12T14:22:54;1.98;;;1.33;;
16159;SDS011;8185;57.818;15.224;2023-08-12T14:25:21;2.67;;;1.40;;
16159;SDS011;8185;57.818;15.224;2023-08-12T14:27:50;1.30;;;1.20;;
16159;SDS011;8185;57.818;15.224;2023-08-12T14:30:18;1.80;;;1.30;;
16159;SDS011;8185;57.818;15.224;2023-08-12T14:32:45;1.67;;;1.52;;
16159;SDS011;8185;57.818;15.224;2023-08-12T14:35:13;3.03;;;1.42;;
16159;SDS011;8185;57.818;15.224;2023-08-12T14:37:40;1.60;;;1.50;;
16159;SDS011;8185;57.818;15.224;2023-08-12T14:40:07;2.10;;;1.50;;
16159;SDS011;8185;57.818;15.224;2023-08-12T14:42:35;4.00;;;1.60;;
16159;SDS011;8185;57.818;15.224;2023-08-12T14:45:04;4.32;;;1.60;;
16159;SDS011;8185;57.818;15.224;2023-08-12T14:47:32;3.17;;;1.40;;
16159;SDS011;8185;57.818;15.224;2023-08-12T14:49:59;1.80;;;1.50;;
16159;SDS011;8185;57.818;15.224;2023-08-12T14:52:26;1.75;;;1.50;;